sensor_id;sensor_type;location;lat;lon;timestamp;pressure;altitude;pressure_sealevel;temperature;humidity
65760;BME280;52496;51.082;5.066;2023-04-27T00:00:28;101909.34;;;5.00;93.95
65760;BME280;52496;51.082;5.066;2023-04-27T00:02:58;101909.59;;;4.97;93.91
65760;BME280;52496;51.082;5.066;2023-04-27T00:05:29;101917.78;;;4.94;94.45
65760;BME280;52496;51.082;5.066;2023-04-27T00:07:59;101905.75;;;4.90;94.46
65760;BME280;52496;51.082;5.066;2023-04-27T00:10:30;101914.19;;;4.84;95.07
65760;BME280;52496;51.082;5.066;2023-04-27T00:13:01;101915.63;;;4.77;95.57
65760;BME280;52496;51.082;5.066;2023-04-27T00:15:31;101916.34;;;4.68;98.12
65760;BME280;52496;51.082;5.066;2023-04-27T00:18:02;101916.13;;;4.59;100.00
65760;BME280;52496;51.082;5.066;2023-04-27T00:20:32;101908.16;;;4.48;100.00
65760;BME280;52496;51.082;5.066;2023-04-27T00:23:03;101902.97;;;4.35;100.00
65760;BME280;52496;51.082;5.066;2023-04-27T00:25:33;101912.31;;;4.28;100.00
65760;BME280;52496;51.082;5.066;2023-04-27T00:28:04;101912.16;;;4.19;100.00
65760;BME280;52496;51.082;5.066;2023-04-27T00:30:35;101908.31;;;4.11;100.00
65760;BME280;52496;51.082;5.066;2023-04-27T00:33:05;101904.41;;;4.04;100.00
65760;BME280;52496;51.082;5.066;2023-04-27T00:35:36;101910.19;;;3.98;100.00
65760;BME280;52496;51.082;5.066;2023-04-27T00:38:06;101914.25;;;3.91;100.00
65760;BME280;52496;51.082;5.066;2023-04-27T00:40:38;101914.72;;;3.85;100.00
65760;BME280;52496;51.082;5.066;2023-04-27T00:43:09;101911.56;;;3.80;100.00
65760;BME280;52496;51.082;5.066;2023-04-27T00:45:43;101915.63;;;3.73;100.00
65760;BME280;52496;51.082;5.066;2023-04-27T00:48:14;101912.47;;;3.67;100.00
65760;BME280;52496;51.082;5.066;2023-04-27T00:50:45;101915.56;;;3.61;100.00
65760;BME280;52496;51.082;5.066;2023-04-27T00:53:16;101907.84;;;3.58;100.00
65760;BME280;52496;51.082;5.066;2023-04-27T00:55:47;101906.41;;;3.54;100.00
65760;BME280;52496;51.082;5.066;2023-04-27T00:58:17;101913.09;;;3.47;100.00
65760;BME280;52496;51.082;5.066;2023-04-27T01:00:48;101907.28;;;3.42;100.00
65760;BME280;52496;51.082;5.066;2023-04-27T01:03:19;101908.50;;;3.38;100.00
65760;BME280;52496;51.082;5.066;2023-04-27T01:05:49;101912.41;;;3.32;100.00
65760;BME280;52496;51.082;5.066;2023-04-27T01:08:20;101911.81;;;3.29;100.00
65760;BME280;52496;51.082;5.066;2023-04-27T01:10:50;101917.28;;;3.26;100.00
65760;BME280;52496;51.082;5.066;2023-04-27T01:13:21;101918.47;;;3.21;100.00
65760;BME280;52496;51.082;5.066;2023-04-27T01:15:51;101914.34;;;3.17;100.00
65760;BME280;52496;51.082;5.066;2023-04-27T01:18:22;101914.81;;;3.11;100.00
65760;BME280;52496;51.082;5.066;2023-04-27T01:20:52;101913.31;;;3.07;100.00
65760;BME280;52496;51.082;5.066;2023-04-27T01:23:25;101908.25;;;3.04;100.00
65760;BME280;52496;51.082;5.066;2023-04-27T01:25:55;101904.03;;;3.02;100.00
65760;BME280;52496;51.082;5.066;2023-04-27T01:28:26;101903.38;;;2.98;100.00
65760;BME280;52496;51.082;5.066;2023-04-27T01:30:56;101900.25;;;2.93;100.00
65760;BME280;52496;51.082;5.066;2023-04-27T01:33:27;101905.75;;;2.90;100.00
65760;BME280;52496;51.082;5.066;2023-04-27T01:35:57;101902.59;;;2.85;100.00
65760;BME280;52496;51.082;5.066;2023-04-27T01:38:28;101902.91;;;2.80;100.00
65760;BME280;52496;51.082;5.066;2023-04-27T01:40:59;101897.94;;;2.75;100.00
65760;BME280;52496;51.082;5.066;2023-04-27T01:43:31;101904.28;;;2.73;100.00
65760;BME280;52496;51.082;5.066;2023-04-27T01:46:19;101904.72;;;2.67;100.00
65760;BME280;52496;51.082;5.066;2023-04-27T01:48:50;101899.84;;;2.61;100.00
65760;BME280;52496;51.082;5.066;2023-04-27T01:51:21;101895.84;;;2.55;100.00
65760;BME280;52496;51.082;5.066;2023-04-27T01:53:51;101896.06;;;2.52;100.00
65760;BME280;52496;51.082;5.066;2023-04-27T01:56:23;101892.91;;;2.47;100.00
65760;BME280;52496;51.082;5.066;2023-04-27T01:58:54;101893.97;;;2.44;100.00
65760;BME280;52496;51.082;5.066;2023-04-27T02:01:25;101893.13;;;2.44;100.00
65760;BME280;52496;51.082;5.066;2023-04-27T02:03:55;101886.97;;;2.43;100.00
65760;BME280;52496;51.082;5.066;2023-04-27T02:06:26;101896.25;;;2.49;100.00
65760;BME280;52496;51.082;5.066;2023-04-27T02:08:56;101897.22;;;2.48;100.00
65760;BME280;52496;51.082;5.066;2023-04-27T02:11:27;101895.56;;;2.47;100.00
65760;BME280;52496;51.082;5.066;2023-04-27T02:13:58;101895.00;;;2.42;100.00
65760;BME280;52496;51.082;5.066;2023-04-27T02:16:29;101896.91;;;2.40;100.00
65760;BME280;52496;51.082;5.066;2023-04-27T02:18:59;101880.44;;;2.36;100.00
65760;BME280;52496;51.082;5.066;2023-04-27T02:21:30;101883.28;;;2.33;100.00
65760;BME280;52496;51.082;5.066;2023-04-27T02:24:00;101873.91;;;2.29;100.00
65760;BME280;52496;51.082;5.066;2023-04-27T02:26:31;101884.66;;;2.26;100.00
65760;BME280;52496;51.082;5.066;2023-04-27T02:29:02;101877.38;;;2.29;100.00
65760;BME280;52496;51.082;5.066;2023-04-27T02:31:33;101869.25;;;2.33;100.00
65760;BME280;52496;51.082;5.066;2023-04-27T02:34:03;101876.75;;;2.39;100.00
65760;BME280;52496;51.082;5.066;2023-04-27T02:36:34;101880.63;;;2.46;100.00
65760;BME280;52496;51.082;5.066;2023-04-27T02:39:05;101877.56;;;2.52;100.00
65760;BME280;52496;51.082;5.066;2023-04-27T02:41:35;101881.81;;;2.55;100.00
65760;BME280;52496;51.082;5.066;2023-04-27T02:44:06;101883.59;;;2.54;100.00
65760;BME280;52496;51.082;5.066;2023-04-27T02:46:36;101875.78;;;2.52;100.00
65760;BME280;52496;51.082;5.066;2023-04-27T02:49:07;101879.50;;;2.50;100.00
65760;BME280;52496;51.082;5.066;2023-04-27T02:51:38;101879.72;;;2.47;100.00
65760;BME280;52496;51.082;5.066;2023-04-27T02:54:08;101885.19;;;2.44;100.00
65760;BME280;52496;51.082;5.066;2023-04-27T02:56:38;101879.81;;;2.45;100.00
65760;BME280;52496;51.082;5.066;2023-04-27T02:59:09;101877.28;;;2.44;100.00
65760;BME280;52496;51.082;5.066;2023-04-27T03:01:40;101882.78;;;2.41;100.00
65760;BME280;52496;51.082;5.066;2023-04-27T03:04:10;101872.63;;;2.35;100.00
65760;BME280;52496;51.082;5.066;2023-04-27T03:06:43;101879.06;;;2.30;100.00
65760;BME280;52496;51.082;5.066;2023-04-27T03:09:14;101879.47;;;2.24;100.00
65760;BME280;52496;51.082;5.066;2023-04-27T03:11:44;101878.09;;;2.19;100.00
65760;BME280;52496;51.082;5.066;2023-04-27T03:14:15;101883.69;;;2.14;100.00
65760;BME280;52496;51.082;5.066;2023-04-27T03:16:45;101882.22;;;2.10;100.00
65760;BME280;52496;51.082;5.066;2023-04-27T03:19:16;101892.03;;;2.08;100.00
65760;BME280;52496;51.082;5.066;2023-04-27T03:21:46;101890.16;;;2.10;100.00
65760;BME280;52496;51.082;5.066;2023-04-27T03:24:17;101890.03;;;2.12;100.00
65760;BME280;52496;51.082;5.066;2023-04-27T03:26:47;101891.06;;;2.09;100.00
65760;BME280;52496;51.082;5.066;2023-04-27T03:29:18;101893.84;;;2.08;100.00
65760;BME280;52496;51.082;5.066;2023-04-27T03:31:48;101892.03;;;2.08;100.00
65760;BME280;52496;51.082;5.066;2023-04-27T03:34:19;101892.13;;;2.06;100.00
65760;BME280;52496;51.082;5.066;2023-04-27T03:36:51;101897.59;;;2.03;100.00
65760;BME280;52496;51.082;5.066;2023-04-27T03:39:21;101892.66;;;1.99;100.00
65760;BME280;52496;51.082;5.066;2023-04-27T03:41:52;101898.88;;;1.98;100.00
65760;BME280;52496;51.082;5.066;2023-04-27T03:44:22;101903.00;;;2.02;100.00
65760;BME280;52496;51.082;5.066;2023-04-27T03:46:53;101904.69;;;2.03;100.00
65760;BME280;52496;51.082;5.066;2023-04-27T03:49:24;101900.25;;;2.03;100.00
65760;BME280;52496;51.082;5.066;2023-04-27T03:51:55;101897.53;;;2.05;100.00
65760;BME280;52496;51.082;5.066;2023-04-27T03:54:25;101900.38;;;2.02;100.00
65760;BME280;52496;51.082;5.066;2023-04-27T03:56:56;101906.59;;;2.01;100.00
65760;BME280;52496;51.082;5.066;2023-04-27T03:59:28;101909.44;;;1.98;100.00
65760;BME280;52496;51.082;5.066;2023-04-27T04:01:59;101905.22;;;1.95;100.00
65760;BME280;52496;51.082;5.066;2023-04-27T04:04:30;101907.84;;;1.95;100.00
65760;BME280;52496;51.082;5.066;2023-04-27T04:07:01;101906.34;;;1.91;100.00
65760;BME280;52496;51.082;5.066;2023-04-27T04:09:31;101914.38;;;1.90;100.00
65760;BME280;52496;51.082;5.066;2023-04-27T04:12:02;101910.22;;;1.86;100.00
65760;BME280;52496;51.082;5.066;2023-04-27T04:14:32;101902.50;;;1.82;100.00
65760;BME280;52496;51.082;5.066;2023-04-27T04:17:03;101912.88;;;1.86;100.00
65760;BME280;52496;51.082;5.066;2023-04-27T04:19:34;101903.38;;;1.83;100.00
65760;BME280;52496;51.082;5.066;2023-04-27T04:22:05;101906.88;;;1.83;100.00
65760;BME280;52496;51.082;5.066;2023-04-27T04:24:35;101905.16;;;1.82;100.00
65760;BME280;52496;51.082;5.066;2023-04-27T04:27:06;101899.16;;;1.80;100.00
65760;BME280;52496;51.082;5.066;2023-04-27T04:29:37;101912.22;;;1.82;100.00
65760;BME280;52496;51.082;5.066;2023-04-27T04:32:08;101908.66;;;1.83;100.00
65760;BME280;52496;51.082;5.066;2023-04-27T04:34:38;101900.44;;;1.88;100.00
65760;BME280;52496;51.082;5.066;2023-04-27T04:37:09;101909.63;;;1.95;100.00
65760;BME280;52496;51.082;5.066;2023-04-27T04:39:39;101909.13;;;2.02;100.00
65760;BME280;52496;51.082;5.066;2023-04-27T04:42:10;101912.94;;;2.11;100.00
65760;BME280;52496;51.082;5.066;2023-04-27T04:44:40;101914.13;;;2.20;100.00
65760;BME280;52496;51.082;5.066;2023-04-27T04:47:11;101911.78;;;2.28;100.00
65760;BME280;52496;51.082;5.066;2023-04-27T04:49:42;101919.06;;;2.37;100.00
65760;BME280;52496;51.082;5.066;2023-04-27T04:52:12;101917.81;;;2.43;100.00
65760;BME280;52496;51.082;5.066;2023-04-27T04:54:43;101927.94;;;2.49;100.00
65760;BME280;52496;51.082;5.066;2023-04-27T04:57:13;101921.41;;;2.55;100.00
65760;BME280;52496;51.082;5.066;2023-04-27T04:59:44;101935.91;;;2.62;100.00
65760;BME280;52496;51.082;5.066;2023-04-27T05:02:14;101938.97;;;2.68;100.00
65760;BME280;52496;51.082;5.066;2023-04-27T05:04:45;101928.81;;;2.75;100.00
65760;BME280;52496;51.082;5.066;2023-04-27T05:07:16;101948.69;;;2.81;100.00
65760;BME280;52496;51.082;5.066;2023-04-27T05:09:46;101943.88;;;2.86;100.00
65760;BME280;52496;51.082;5.066;2023-04-27T05:12:17;101939.88;;;2.93;100.00
65760;BME280;52496;51.082;5.066;2023-04-27T05:14:47;101946.31;;;3.02;100.00
65760;BME280;52496;51.082;5.066;2023-04-27T05:17:18;101941.44;;;3.08;100.00
65760;BME280;52496;51.082;5.066;2023-04-27T05:19:48;101940.16;;;3.14;100.00
65760;BME280;52496;51.082;5.066;2023-04-27T05:22:19;101940.56;;;3.20;100.00
65760;BME280;52496;51.082;5.066;2023-04-27T05:24:49;101951.47;;;3.29;100.00
65760;BME280;52496;51.082;5.066;2023-04-27T05:27:21;101950.06;;;3.36;100.00
65760;BME280;52496;51.082;5.066;2023-04-27T05:29:51;101940.50;;;3.46;100.00
65760;BME280;52496;51.082;5.066;2023-04-27T05:32:21;101930.94;;;3.56;100.00
65760;BME280;52496;51.082;5.066;2023-04-27T05:34:52;101939.97;;;3.65;100.00
65760;BME280;52496;51.082;5.066;2023-04-27T05:37:23;101946.53;;;3.72;100.00
65760;BME280;52496;51.082;5.066;2023-04-27T05:39:53;101950.31;;;3.81;100.00
65760;BME280;52496;51.082;5.066;2023-04-27T05:42:24;101952.38;;;3.88;100.00
65760;BME280;52496;51.082;5.066;2023-04-27T05:44:54;101946.41;;;3.98;100.00
65760;BME280;52496;51.082;5.066;2023-04-27T05:47:25;101944.78;;;4.08;100.00
65760;BME280;52496;51.082;5.066;2023-04-27T05:49:55;101937.06;;;4.16;100.00
65760;BME280;52496;51.082;5.066;2023-04-27T05:52:26;101948.31;;;4.31;100.00
65760;BME280;52496;51.082;5.066;2023-04-27T05:55:00;101948.22;;;4.44;100.00
65760;BME280;52496;51.082;5.066;2023-04-27T05:57:30;101948.09;;;4.56;100.00
65760;BME280;52496;51.082;5.066;2023-04-27T06:00:02;101941.66;;;4.72;100.00
65760;BME280;52496;51.082;5.066;2023-04-27T06:02:38;101946.69;;;4.86;100.00
65760;BME280;52496;51.082;5.066;2023-04-27T06:05:08;101943.56;;;5.03;100.00
65760;BME280;52496;51.082;5.066;2023-04-27T06:07:39;101940.53;;;5.19;100.00
65760;BME280;52496;51.082;5.066;2023-04-27T06:10:14;101945.22;;;5.38;100.00
65760;BME280;52496;51.082;5.066;2023-04-27T06:12:45;101942.78;;;5.58;100.00
65760;BME280;52496;51.082;5.066;2023-04-27T06:15:16;101942.94;;;5.77;100.00
65760;BME280;52496;51.082;5.066;2023-04-27T06:17:46;101946.66;;;5.97;100.00
65760;BME280;52496;51.082;5.066;2023-04-27T06:20:17;101944.03;;;6.18;100.00
65760;BME280;52496;51.082;5.066;2023-04-27T06:22:47;101947.06;;;6.34;100.00
65760;BME280;52496;51.082;5.066;2023-04-27T06:25:18;101939.47;;;6.51;100.00
65760;BME280;52496;51.082;5.066;2023-04-27T06:27:48;101941.53;;;6.68;100.00
65760;BME280;52496;51.082;5.066;2023-04-27T06:30:19;101945.53;;;6.83;100.00
65760;BME280;52496;51.082;5.066;2023-04-27T06:32:50;101945.16;;;6.98;100.00
65760;BME280;52496;51.082;5.066;2023-04-27T06:35:21;101942.84;;;7.14;100.00
65760;BME280;52496;51.082;5.066;2023-04-27T06:37:51;101946.81;;;7.29;96.66
65760;BME280;52496;51.082;5.066;2023-04-27T06:40:22;101953.00;;;7.40;96.07
65760;BME280;52496;51.082;5.066;2023-04-27T06:42:53;101950.22;;;7.51;96.62
65760;BME280;52496;51.082;5.066;2023-04-27T06:45:24;101957.25;;;7.62;95.32
65760;BME280;52496;51.082;5.066;2023-04-27T06:47:55;101948.84;;;7.76;92.72
65760;BME280;52496;51.082;5.066;2023-04-27T06:50:26;101946.06;;;7.87;90.89
65760;BME280;52496;51.082;5.066;2023-04-27T06:52:56;101950.41;;;7.98;93.26
65760;BME280;52496;51.082;5.066;2023-04-27T06:55:27;101948.31;;;8.11;91.52
65760;BME280;52496;51.082;5.066;2023-04-27T06:57:57;101949.97;;;8.32;92.42
65760;BME280;52496;51.082;5.066;2023-04-27T07:00:28;101941.00;;;8.52;93.80
65760;BME280;52496;51.082;5.066;2023-04-27T07:02:58;101953.28;;;8.72;91.46
65760;BME280;52496;51.082;5.066;2023-04-27T07:05:29;101944.81;;;8.87;86.74
65760;BME280;52496;51.082;5.066;2023-04-27T07:07:59;101953.59;;;8.97;85.17
65760;BME280;52496;51.082;5.066;2023-04-27T07:10:30;101954.13;;;9.10;86.84
65760;BME280;52496;51.082;5.066;2023-04-27T07:13:00;101951.34;;;9.30;84.88
65760;BME280;52496;51.082;5.066;2023-04-27T07:15:31;101948.56;;;9.49;85.64
65760;BME280;52496;51.082;5.066;2023-04-27T07:18:01;101944.38;;;9.64;82.43
65760;BME280;52496;51.082;5.066;2023-04-27T07:20:32;101945.00;;;9.76;81.26
65760;BME280;52496;51.082;5.066;2023-04-27T07:23:02;101943.94;;;9.87;82.41
65760;BME280;52496;51.082;5.066;2023-04-27T07:25:33;101940.44;;;10.04;81.52
65760;BME280;52496;51.082;5.066;2023-04-27T07:28:06;101937.41;;;10.25;81.51
65760;BME280;52496;51.082;5.066;2023-04-27T07:30:36;101925.50;;;10.38;75.75
65760;BME280;52496;51.082;5.066;2023-04-27T07:33:07;101920.72;;;10.49;76.82
65760;BME280;52496;51.082;5.066;2023-04-27T07:35:38;101930.47;;;10.59;76.77
65760;BME280;52496;51.082;5.066;2023-04-27T07:38:09;101935.25;;;10.73;76.17
65760;BME280;52496;51.082;5.066;2023-04-27T07:40:40;101932.63;;;10.81;73.65
65760;BME280;52496;51.082;5.066;2023-04-27T07:43:11;101933.47;;;10.82;75.63
65760;BME280;52496;51.082;5.066;2023-04-27T07:45:42;101928.81;;;10.92;73.52
65760;BME280;52496;51.082;5.066;2023-04-27T07:48:13;101940.09;;;11.03;73.50
65760;BME280;52496;51.082;5.066;2023-04-27T07:50:43;101924.31;;;11.27;72.86
65760;BME280;52496;51.082;5.066;2023-04-27T07:53:14;101932.22;;;11.53;73.48
65760;BME280;52496;51.082;5.066;2023-04-27T07:55:45;101927.59;;;11.79;72.26
65760;BME280;52496;51.082;5.066;2023-04-27T07:58:15;101932.31;;;12.02;69.97
65760;BME280;52496;51.082;5.066;2023-04-27T08:00:46;101926.63;;;12.21;70.27
65760;BME280;52496;51.082;5.066;2023-04-27T08:03:16;101918.56;;;12.29;68.03
65760;BME280;52496;51.082;5.066;2023-04-27T08:05:47;101913.53;;;12.26;65.04
65760;BME280;52496;51.082;5.066;2023-04-27T08:08:17;101932.81;;;12.22;64.72
65760;BME280;52496;51.082;5.066;2023-04-27T08:10:48;101918.56;;;12.29;66.51
65760;BME280;52496;51.082;5.066;2023-04-27T08:13:18;101920.22;;;12.55;65.01
65760;BME280;52496;51.082;5.066;2023-04-27T08:15:49;101916.50;;;12.64;64.07
65760;BME280;52496;51.082;5.066;2023-04-27T08:18:20;101918.13;;;12.81;66.27
65760;BME280;52496;51.082;5.066;2023-04-27T08:20:51;101919.94;;;12.89;64.17
65760;BME280;52496;51.082;5.066;2023-04-27T08:23:22;101915.38;;;12.98;62.85
65760;BME280;52496;51.082;5.066;2023-04-27T08:25:55;101922.00;;;13.18;61.32
65760;BME280;52496;51.082;5.066;2023-04-27T08:28:27;101912.16;;;13.42;59.22
65760;BME280;52496;51.082;5.066;2023-04-27T08:30:58;101911.97;;;13.51;60.93
65760;BME280;52496;51.082;5.066;2023-04-27T08:33:29;101919.22;;;13.66;59.72
65760;BME280;52496;51.082;5.066;2023-04-27T08:35:59;101908.31;;;13.67;57.69
65760;BME280;52496;51.082;5.066;2023-04-27T08:38:30;101912.97;;;13.73;58.20
65760;BME280;52496;51.082;5.066;2023-04-27T08:41:00;101910.47;;;13.95;57.86
65760;BME280;52496;51.082;5.066;2023-04-27T08:43:34;101917.44;;;14.04;54.14
65760;BME280;52496;51.082;5.066;2023-04-27T08:46:05;101919.03;;;14.13;52.72
65760;BME280;52496;51.082;5.066;2023-04-27T08:48:36;101914.59;;;14.20;52.84
65760;BME280;52496;51.082;5.066;2023-04-27T08:51:07;101906.09;;;14.32;51.12
65760;BME280;52496;51.082;5.066;2023-04-27T08:53:49;101902.97;;;14.43;51.36
65760;BME280;52496;51.082;5.066;2023-04-27T08:56:21;101903.28;;;14.63;55.28
65760;BME280;52496;51.082;5.066;2023-04-27T08:58:53;101902.91;;;14.81;52.60
65760;BME280;52496;51.082;5.066;2023-04-27T09:01:25;101894.06;;;14.87;51.32
65760;BME280;52496;51.082;5.066;2023-04-27T09:03:57;101901.41;;;15.08;51.93
65760;BME280;52496;51.082;5.066;2023-04-27T09:06:32;101906.47;;;15.18;49.75
65760;BME280;52496;51.082;5.066;2023-04-27T09:09:03;101899.19;;;15.33;49.22
65760;BME280;52496;51.082;5.066;2023-04-27T09:11:35;101898.81;;;15.36;47.40
65760;BME280;52496;51.082;5.066;2023-04-27T09:14:21;101894.34;;;15.43;48.13
65760;BME280;52496;51.082;5.066;2023-04-27T09:16:56;101904.38;;;15.49;47.58
65760;BME280;52496;51.082;5.066;2023-04-27T09:19:29;101906.03;;;15.50;47.48
65760;BME280;52496;51.082;5.066;2023-04-27T09:22:10;101915.28;;;15.63;48.96
65760;BME280;52496;51.082;5.066;2023-04-27T09:24:50;101920.13;;;15.67;46.02
65760;BME280;52496;51.082;5.066;2023-04-27T09:27:21;101901.84;;;15.84;46.71
65760;BME280;52496;51.082;5.066;2023-04-27T09:29:52;101893.63;;;15.92;46.92
65760;BME280;52496;51.082;5.066;2023-04-27T09:32:22;101901.56;;;16.00;46.50
65760;BME280;52496;51.082;5.066;2023-04-27T09:34:53;101897.06;;;16.08;45.62
65760;BME280;52496;51.082;5.066;2023-04-27T09:37:23;101890.69;;;16.15;46.88
65760;BME280;52496;51.082;5.066;2023-04-27T09:39:56;101895.16;;;16.29;44.63
65760;BME280;52496;51.082;5.066;2023-04-27T09:42:26;101890.50;;;16.17;43.75
65760;BME280;52496;51.082;5.066;2023-04-27T09:44:58;101890.88;;;16.14;42.60
65760;BME280;52496;51.082;5.066;2023-04-27T09:47:32;101885.13;;;16.23;44.24
65760;BME280;52496;51.082;5.066;2023-04-27T09:50:04;101887.25;;;16.28;42.86
65760;BME280;52496;51.082;5.066;2023-04-27T09:52:35;101886.00;;;16.31;44.47
65760;BME280;52496;51.082;5.066;2023-04-27T09:55:08;101887.34;;;16.41;42.20
65760;BME280;52496;51.082;5.066;2023-04-27T09:58:04;101887.41;;;16.55;44.17
65760;BME280;52496;51.082;5.066;2023-04-27T10:03:40;101887.78;;;16.80;41.03
65760;BME280;52496;51.082;5.066;2023-04-27T10:06:30;101895.56;;;16.89;41.86
65760;BME280;52496;51.082;5.066;2023-04-27T10:09:07;101894.16;;;17.07;41.56
65760;BME280;52496;51.082;5.066;2023-04-27T10:11:40;101894.84;;;17.22;39.98
65760;BME280;52496;51.082;5.066;2023-04-27T10:14:17;101890.31;;;17.29;37.66
65760;BME280;52496;51.082;5.066;2023-04-27T10:16:53;101894.38;;;17.05;38.09
65760;BME280;52496;51.082;5.066;2023-04-27T10:19:24;101891.91;;;17.10;39.39
65760;BME280;52496;51.082;5.066;2023-04-27T10:22:01;101891.28;;;17.15;36.97
65760;BME280;52496;51.082;5.066;2023-04-27T10:24:39;101885.56;;;16.90;37.68
65760;BME280;52496;51.082;5.066;2023-04-27T10:27:11;101890.84;;;16.70;37.67
65760;BME280;52496;51.082;5.066;2023-04-27T10:29:46;101887.91;;;16.65;39.02
65760;BME280;52496;51.082;5.066;2023-04-27T10:32:24;101879.34;;;16.89;38.99
65760;BME280;52496;51.082;5.066;2023-04-27T10:35:05;101875.91;;;17.15;40.11
65760;BME280;52496;51.082;5.066;2023-04-27T10:37:39;101873.66;;;17.26;35.97
65760;BME280;52496;51.082;5.066;2023-04-27T10:40:13;101867.22;;;17.47;36.74
65760;BME280;52496;51.082;5.066;2023-04-27T10:42:45;101865.41;;;17.54;36.92
65760;BME280;52496;51.082;5.066;2023-04-27T10:45:27;101848.69;;;17.24;35.06
65760;BME280;52496;51.082;5.066;2023-04-27T10:47:59;101860.22;;;16.97;35.19
65760;BME280;52496;51.082;5.066;2023-04-27T10:50:30;101854.78;;;16.84;37.24
65760;BME280;52496;51.082;5.066;2023-04-27T10:53:04;101856.03;;;16.82;35.75
65760;BME280;52496;51.082;5.066;2023-04-27T10:55:36;101859.56;;;16.89;37.40
65760;BME280;52496;51.082;5.066;2023-04-27T10:58:06;101853.84;;;17.12;36.55
65760;BME280;52496;51.082;5.066;2023-04-27T11:00:38;101852.00;;;17.19;37.39
65760;BME280;52496;51.082;5.066;2023-04-27T11:05:46;101840.97;;;17.14;35.95
65760;BME280;52496;51.082;5.066;2023-04-27T11:08:18;101846.22;;;17.29;38.90
65760;BME280;52496;51.082;5.066;2023-04-27T11:10:51;101837.94;;;17.57;37.50
65760;BME280;52496;51.082;5.066;2023-04-27T11:13:23;101838.81;;;17.77;36.76
65760;BME280;52496;51.082;5.066;2023-04-27T11:15:55;101839.63;;;18.04;36.01
65760;BME280;52496;51.082;5.066;2023-04-27T11:18:30;101833.97;;;18.26;37.71
65760;BME280;52496;51.082;5.066;2023-04-27T11:21:19;101833.69;;;18.54;35.79
65760;BME280;52496;51.082;5.066;2023-04-27T11:23:50;101824.75;;;18.47;35.05
65760;BME280;52496;51.082;5.066;2023-04-27T11:26:21;101821.97;;;18.67;35.35
65760;BME280;52496;51.082;5.066;2023-04-27T11:29:02;101811.59;;;18.57;33.17
65760;BME280;52496;51.082;5.066;2023-04-27T11:31:46;101824.78;;;18.33;34.47
65760;BME280;52496;51.082;5.066;2023-04-27T11:34:22;101820.22;;;18.34;32.82
65760;BME280;52496;51.082;5.066;2023-04-27T11:36:57;101817.91;;;18.44;33.57
65760;BME280;52496;51.082;5.066;2023-04-27T11:39:36;101815.78;;;18.53;33.47
65760;BME280;52496;51.082;5.066;2023-04-27T11:42:20;101818.19;;;18.88;34.20
65760;BME280;52496;51.082;5.066;2023-04-27T11:44:55;101820.09;;;19.19;33.93
65760;BME280;52496;51.082;5.066;2023-04-27T11:47:27;101820.47;;;19.22;31.79
65760;BME280;52496;51.082;5.066;2023-04-27T11:50:00;101813.09;;;19.36;34.95
65760;BME280;52496;51.082;5.066;2023-04-27T11:52:32;101806.94;;;19.54;33.43
65760;BME280;52496;51.082;5.066;2023-04-27T11:55:05;101802.19;;;19.75;35.20
65760;BME280;52496;51.082;5.066;2023-04-27T11:57:40;101808.47;;;20.19;34.23
65760;BME280;52496;51.082;5.066;2023-04-27T12:00:11;101813.19;;;20.42;30.89
65760;BME280;52496;51.082;5.066;2023-04-27T12:02:43;101825.25;;;20.52;29.01
65760;BME280;52496;51.082;5.066;2023-04-27T12:05:14;101813.44;;;20.22;29.49
65760;BME280;52496;51.082;5.066;2023-04-27T12:07:44;101810.81;;;20.33;30.77
65760;BME280;52496;51.082;5.066;2023-04-27T12:10:15;101813.97;;;20.49;30.04
65760;BME280;52496;51.082;5.066;2023-04-27T12:12:46;101811.19;;;20.74;28.77
65760;BME280;52496;51.082;5.066;2023-04-27T12:15:16;101820.97;;;20.93;31.17
65760;BME280;52496;51.082;5.066;2023-04-27T12:17:47;101815.53;;;20.93;26.22
65760;BME280;52496;51.082;5.066;2023-04-27T12:20:17;101814.88;;;20.79;27.54
65760;BME280;52496;51.082;5.066;2023-04-27T12:22:48;101801.69;;;20.65;27.86
65760;BME280;52496;51.082;5.066;2023-04-27T12:25:18;101804.63;;;20.63;27.10
65760;BME280;52496;51.082;5.066;2023-04-27T12:27:50;101791.19;;;20.31;27.48
65760;BME280;52496;51.082;5.066;2023-04-27T12:30:22;101791.41;;;20.30;27.99
65760;BME280;52496;51.082;5.066;2023-04-27T12:32:53;101778.75;;;20.42;30.66
65760;BME280;52496;51.082;5.066;2023-04-27T12:35:23;101781.19;;;20.80;30.08
65760;BME280;52496;51.082;5.066;2023-04-27T12:37:54;101781.09;;;21.17;30.19
65760;BME280;52496;51.082;5.066;2023-04-27T12:40:24;101776.44;;;21.36;28.00
65760;BME280;52496;51.082;5.066;2023-04-27T12:42:55;101780.19;;;21.35;26.28
65760;BME280;52496;51.082;5.066;2023-04-27T12:45:26;101791.94;;;21.05;25.84
65760;BME280;52496;51.082;5.066;2023-04-27T12:47:56;101784.03;;;20.55;27.52
65760;BME280;52496;51.082;5.066;2023-04-27T12:50:27;101781.59;;;20.29;28.76
65760;BME280;52496;51.082;5.066;2023-04-27T12:52:58;101785.50;;;20.14;27.42
65760;BME280;52496;51.082;5.066;2023-04-27T12:55:29;101779.31;;;20.07;29.94
65760;BME280;52496;51.082;5.066;2023-04-27T12:58:00;101780.16;;;20.08;28.67
65760;BME280;52496;51.082;5.066;2023-04-27T13:00:31;101778.22;;;19.90;27.32
65760;BME280;52496;51.082;5.066;2023-04-27T13:03:03;101768.25;;;19.84;28.61
65760;BME280;52496;51.082;5.066;2023-04-27T13:05:35;101761.19;;;19.83;29.05
65760;BME280;52496;51.082;5.066;2023-04-27T13:08:06;101753.59;;;20.28;31.32
65760;BME280;52496;51.082;5.066;2023-04-27T13:10:37;101747.25;;;20.71;29.10
65760;BME280;52496;51.082;5.066;2023-04-27T13:13:07;101744.28;;;21.03;27.19
65760;BME280;52496;51.082;5.066;2023-04-27T13:15:38;101736.00;;;20.98;28.44
65760;BME280;52496;51.082;5.066;2023-04-27T13:18:08;101742.56;;;20.90;28.07